createdAt,value
2023-04-13T00:02:23.952Z,4.40
2023-04-13T00:04:51.256Z,4.15
2023-04-13T00:07:19.046Z,4.13
2023-04-13T00:09:47.542Z,4.35
2023-04-13T00:12:15.920Z,3.95
2023-04-13T00:14:44.015Z,4.13
2023-04-13T00:17:11.096Z,4.20
2023-04-13T00:19:37.980Z,3.88
2023-04-13T00:22:04.962Z,4.90
2023-04-13T00:24:33.594Z,4.40
2023-04-13T00:27:01.283Z,4.97
2023-04-13T00:29:28.101Z,4.53
2023-04-13T00:31:54.853Z,5.45
2023-04-13T00:34:21.680Z,5.00
2023-04-13T00:36:49.259Z,5.38
2023-04-13T00:39:16.143Z,4.97
2023-04-13T00:41:43.109Z,4.85
2023-04-13T00:44:10.025Z,5.00
2023-04-13T00:46:36.873Z,5.88
2023-04-13T00:49:03.934Z,5.15
2023-04-13T00:51:30.798Z,6.63
2023-04-13T00:53:59.451Z,5.80
2023-04-13T00:56:27.273Z,6.70
2023-04-13T00:58:56.329Z,7.15
2023-04-13T01:01:23.362Z,6.45
2023-04-13T01:03:53.402Z,6.82
2023-04-13T01:06:33.710Z,6.43
2023-04-13T01:09:22.571Z,6.95
2023-04-13T01:12:00.584Z,7.25
2023-04-13T01:14:56.768Z,7.93
2023-04-13T01:17:28.705Z,7.43
2023-04-13T01:20:11.984Z,8.93
2023-04-13T01:22:45.502Z,7.63
2023-04-13T01:25:45.789Z,5.57
2023-04-13T01:28:16.657Z,6.80
2023-04-13T01:30:44.639Z,8.13
2023-04-13T01:33:12.869Z,8.07
2023-04-13T01:35:40.005Z,7.47
2023-04-13T01:38:07.526Z,8.10
2023-04-13T01:40:40.471Z,7.78
2023-04-13T01:43:10.698Z,6.95
2023-04-13T01:46:04.720Z,7.55
2023-04-13T01:48:43.192Z,6.70
2023-04-13T01:51:25.209Z,8.05
2023-04-13T01:54:13.951Z,9.07
2023-04-13T01:56:41.570Z,8.27
2023-04-13T01:59:09.391Z,8.52
2023-04-13T02:01:38.716Z,7.90
2023-04-13T02:04:07.632Z,8.40
2023-04-13T02:06:34.659Z,7.75
2023-04-13T02:09:01.625Z,8.38
2023-04-13T02:11:28.443Z,8.05
2023-04-13T02:13:57.504Z,8.40
2023-04-13T02:16:25.171Z,8.15
2023-04-13T02:18:51.978Z,7.57
2023-04-13T02:21:18.760Z,8.10
2023-04-13T02:23:45.906Z,8.35
2023-04-13T02:26:14.155Z,7.95
2023-04-13T02:28:41.648Z,8.05
2023-04-13T02:31:08.456Z,8.75
2023-04-13T02:33:35.599Z,8.07
2023-04-13T02:36:03.882Z,7.57
2023-04-13T02:38:32.039Z,8.30
2023-04-13T02:41:01.197Z,8.82
2023-04-13T02:43:28.944Z,8.50
2023-04-13T02:45:56.868Z,8.05
2023-04-13T02:48:24.043Z,8.30
2023-04-13T02:50:51.936Z,8.50
2023-04-13T02:53:18.799Z,8.13
2023-04-13T02:55:45.903Z,7.75
2023-04-13T02:58:12.680Z,7.88
2023-04-13T03:00:39.717Z,7.32
2023-04-13T03:03:06.867Z,7.97
2023-04-13T03:05:33.939Z,7.95
2023-04-13T03:08:00.891Z,8.88
2023-04-13T03:10:27.743Z,8.27
2023-04-13T03:12:54.755Z,8.38
2023-04-13T03:15:21.748Z,7.78
2023-04-13T03:17:48.692Z,7.30
2023-04-13T03:20:16.883Z,8.40
2023-04-13T03:22:45.188Z,8.15
2023-04-13T03:25:12.496Z,7.65
2023-04-13T03:27:39.300Z,7.50
2023-04-13T03:30:07.578Z,7.45
2023-04-13T03:32:34.546Z,7.43
2023-04-13T03:35:01.365Z,7.78
2023-04-13T03:37:30.236Z,7.45
2023-04-13T03:39:58.773Z,7.05
2023-04-13T03:42:25.584Z,7.00
2023-04-13T03:44:52.997Z,5.75
2023-04-13T03:47:19.903Z,5.90
2023-04-13T03:49:47.040Z,6.10
2023-04-13T03:52:14.064Z,5.43
2023-04-13T03:54:40.857Z,5.53
2023-04-13T03:57:07.791Z,5.18
2023-04-13T03:59:34.623Z,5.20
2023-04-13T04:02:02.867Z,4.88
2023-04-13T04:04:29.953Z,5.25
2023-04-13T04:06:57.892Z,4.65
2023-04-13T04:09:25.405Z,4.30
2023-04-13T04:11:52.214Z,4.07
2023-04-13T04:14:19.473Z,3.83
2023-04-13T04:16:46.461Z,3.75
2023-04-13T04:19:13.259Z,3.95
2023-04-13T04:21:44.532Z,3.35
2023-04-13T04:24:12.410Z,3.40
2023-04-13T04:26:40.191Z,2.95
2023-04-13T04:29:08.784Z,2.58
2023-04-13T04:31:37.452Z,2.45
2023-04-13T04:34:04.751Z,2.60
2023-04-13T04:36:31.513Z,2.75
2023-04-13T04:39:01.965Z,2.13
2023-04-13T04:41:29.078Z,2.40
2023-04-13T04:43:56.808Z,2.20
2023-04-13T04:46:25.827Z,3.10
2023-04-13T04:48:54.614Z,1.98
2023-04-13T04:51:24.834Z,1.67
2023-04-13T04:53:52.950Z,1.65
2023-04-13T04:56:21.186Z,1.80
2023-04-13T04:58:47.960Z,1.75
2023-04-13T05:01:17.968Z,2.08
2023-04-13T05:03:44.949Z,1.30
2023-04-13T05:06:12.296Z,1.63
2023-04-13T05:08:39.084Z,1.30
2023-04-13T05:11:07.241Z,1.33
2023-04-13T05:13:34.088Z,1.42
2023-04-13T05:16:00.904Z,1.50
2023-04-13T05:18:34.971Z,1.40
2023-04-13T05:21:01.700Z,1.27
2023-04-13T05:23:28.560Z,1.77
2023-04-13T05:25:56.719Z,1.55
2023-04-13T05:28:23.523Z,1.38
2023-04-13T05:30:50.308Z,1.25
2023-04-13T05:33:17.088Z,1.30
2023-04-13T05:35:44.050Z,1.00
2023-04-13T05:38:10.850Z,1.65
2023-04-13T05:40:37.628Z,1.10
2023-04-13T05:43:05.210Z,0.90
2023-04-13T05:45:32.988Z,0.90
2023-04-13T05:47:59.867Z,0.70
2023-04-13T05:50:28.380Z,1.10
2023-04-13T05:52:55.883Z,1.02
2023-04-13T05:55:30.026Z,1.00
2023-04-13T05:57:56.898Z,0.93
2023-04-13T06:00:23.838Z,1.10
2023-04-13T06:02:50.781Z,1.10
2023-04-13T06:05:18.652Z,1.20
2023-04-13T06:07:48.912Z,1.27
2023-04-13T06:10:17.891Z,0.75
2023-04-13T06:12:48.294Z,1.20
2023-04-13T06:15:15.548Z,1.00
2023-04-13T06:17:42.332Z,1.40
2023-04-13T06:20:10.808Z,1.00
2023-04-13T06:22:37.600Z,1.08
2023-04-13T06:25:04.870Z,0.90
2023-04-13T06:27:33.625Z,0.95
2023-04-13T06:30:01.143Z,0.90
2023-04-13T06:32:28.005Z,0.60
2023-04-13T06:34:55.841Z,0.95
2023-04-13T06:37:23.542Z,0.80
2023-04-13T06:39:50.422Z,0.98
2023-04-13T06:42:18.930Z,0.75
2023-04-13T06:44:45.846Z,1.10
2023-04-13T06:47:12.641Z,0.85
2023-04-13T06:49:39.417Z,0.90
2023-04-13T06:52:06.293Z,0.80
2023-04-13T06:54:35.725Z,1.02
2023-04-13T06:57:02.756Z,0.85
2023-04-13T06:59:29.554Z,0.77
2023-04-13T07:01:56.831Z,1.02
2023-04-13T07:04:26.481Z,0.70
2023-04-13T07:06:54.998Z,0.68
2023-04-13T07:09:21.760Z,0.88
2023-04-13T07:11:48.606Z,0.70
2023-04-13T07:14:15.453Z,0.60
2023-04-13T07:16:42.244Z,0.93
2023-04-13T07:19:09.065Z,0.70
2023-04-13T07:21:35.891Z,1.05
2023-04-13T07:24:02.719Z,0.50
2023-04-13T07:26:29.458Z,0.60
2023-04-13T07:28:56.398Z,0.55
2023-04-13T07:31:23.626Z,1.08
2023-04-13T07:33:50.696Z,0.60
2023-04-13T07:36:17.866Z,0.57
2023-04-13T07:38:44.697Z,0.80
2023-04-13T07:41:11.574Z,0.60
2023-04-13T07:43:38.379Z,0.65
2023-04-13T07:46:12.580Z,0.60
2023-04-13T07:51:18.629Z,0.50
2023-04-13T07:53:45.419Z,0.95
2023-04-13T07:56:12.400Z,0.50
2023-04-13T07:58:39.184Z,0.52
2023-04-13T08:01:06.983Z,0.70
2023-04-13T08:03:35.232Z,0.70
2023-04-13T08:06:06.272Z,0.80
2023-04-13T08:08:33.706Z,0.40
2023-04-13T08:11:01.331Z,0.57
2023-04-13T08:13:29.964Z,0.52
2023-04-13T08:15:57.684Z,0.85
2023-04-13T08:18:24.753Z,0.70
2023-04-13T08:20:51.541Z,0.70
2023-04-13T08:23:18.342Z,0.75
2023-04-13T08:25:45.383Z,0.60
2023-04-13T08:28:13.176Z,0.50
2023-04-13T08:30:41.010Z,0.80
2023-04-13T08:33:08.604Z,0.40
2023-04-13T08:35:39.690Z,0.55
2023-04-13T08:38:09.226Z,1.05
2023-04-13T08:40:40.694Z,0.80
2023-04-13T08:43:07.684Z,0.55
2023-04-13T08:45:41.539Z,0.73
2023-04-13T08:48:13.535Z,0.80
2023-04-13T08:50:40.491Z,0.60
2023-04-13T08:53:07.342Z,0.35
2023-04-13T08:55:34.314Z,0.40
2023-04-13T08:58:04.156Z,0.60
2023-04-13T09:00:31.171Z,0.60
2023-04-13T09:03:05.356Z,0.75
2023-04-13T09:05:38.983Z,0.55
2023-04-13T09:08:08.529Z,0.30
2023-04-13T09:10:35.613Z,0.43
2023-04-13T09:13:03.097Z,0.70
2023-04-13T09:15:31.724Z,0.73
2023-04-13T09:18:10.465Z,0.50
2023-04-13T09:20:43.499Z,0.98
2023-04-13T09:23:15.900Z,0.40
2023-04-13T09:25:45.266Z,0.95
2023-04-13T09:28:19.472Z,0.57
2023-04-13T09:30:46.986Z,0.40
2023-04-13T09:35:42.711Z,0.40
2023-04-13T09:38:11.646Z,0.70
2023-04-13T09:40:48.770Z,0.43
2023-04-13T09:43:15.551Z,0.60
2023-04-13T09:45:46.288Z,0.80
2023-04-13T09:48:23.071Z,0.50
2023-04-13T09:51:05.336Z,0.50
2023-04-13T09:53:47.422Z,0.40
2023-04-13T09:56:16.997Z,0.55
2023-04-13T09:58:46.065Z,0.50
2023-04-13T10:01:17.142Z,0.38
2023-04-13T10:03:44.674Z,0.50
2023-04-13T10:06:14.405Z,1.00
2023-04-13T10:08:43.771Z,0.55
2023-04-13T10:11:14.988Z,0.60
2023-04-13T10:13:52.420Z,0.40
2023-04-13T10:16:46.424Z,0.77
2023-04-13T10:19:17.020Z,0.68
2023-04-13T10:21:47.505Z,1.17
2023-04-13T10:24:15.239Z,0.88
2023-04-13T10:26:45.842Z,0.60
2023-04-13T10:29:14.649Z,0.60
2023-04-13T10:31:48.144Z,0.63
2023-04-13T10:34:27.150Z,0.90
2023-04-13T10:37:06.071Z,0.82
2023-04-13T10:39:35.735Z,0.60
2023-04-13T10:42:03.010Z,0.52
2023-04-13T10:44:51.706Z,1.10
2023-04-13T10:47:21.357Z,0.60
2023-04-13T10:49:50.460Z,0.43
2023-04-13T10:52:17.867Z,0.50
2023-04-13T10:54:45.078Z,0.43
2023-04-13T10:57:12.612Z,0.75
2023-04-13T10:59:59.302Z,0.60
2023-04-13T11:02:34.745Z,0.60
2023-04-13T11:05:02.048Z,0.60
2023-04-13T11:07:29.563Z,0.68
2023-04-13T11:12:28.377Z,0.75
2023-04-13T11:14:55.291Z,0.40
2023-04-13T11:17:22.378Z,0.50
2023-04-13T11:19:55.534Z,0.60
2023-04-13T11:22:24.402Z,0.30
2023-04-13T11:24:51.778Z,0.40
2023-04-13T11:27:26.982Z,0.50
2023-04-13T11:30:09.164Z,0.63
2023-04-13T11:32:41.525Z,0.40
2023-04-13T11:35:14.637Z,0.50
2023-04-13T11:37:49.245Z,0.45
2023-04-13T11:40:21.404Z,0.60
2023-04-13T11:42:51.579Z,0.50
2023-04-13T11:45:21.202Z,0.40
2023-04-13T11:47:50.668Z,0.50
2023-04-13T11:50:19.166Z,0.77
2023-04-13T11:52:47.598Z,0.30
2023-04-13T11:55:23.236Z,0.38
2023-04-13T11:57:53.314Z,0.60
2023-04-13T12:00:27.165Z,0.60
2023-04-13T12:05:30.102Z,0.50
2023-04-13T12:07:58.752Z,0.45
2023-04-13T12:10:38.491Z,0.50
2023-04-13T12:16:05.482Z,0.30
2023-04-13T12:18:49.483Z,0.30
2023-04-13T12:21:17.802Z,0.43
2023-04-13T12:23:59.821Z,0.40
2023-04-13T12:29:05.855Z,0.43
2023-04-13T12:31:35.353Z,0.30
2023-04-13T12:34:03.929Z,0.30
2023-04-13T12:36:31.737Z,0.40
2023-04-13T12:39:02.606Z,0.40
2023-04-13T12:41:29.476Z,0.45
2023-04-13T12:43:56.302Z,0.35
2023-04-13T12:46:24.928Z,0.28
2023-04-13T12:48:52.545Z,0.38
2023-04-13T12:51:19.391Z,0.40
2023-04-13T12:53:46.531Z,0.40
2023-04-13T12:56:13.457Z,0.30
2023-04-13T12:58:40.290Z,0.38
2023-04-13T13:01:07.205Z,0.35
2023-04-13T13:03:34.802Z,0.40
2023-04-13T13:06:01.620Z,0.70
2023-04-13T13:08:28.487Z,0.70
2023-04-13T13:10:55.949Z,0.82
2023-04-13T13:13:22.854Z,0.77
2023-04-13T13:15:49.670Z,0.57
2023-04-13T13:18:16.614Z,0.50
2023-04-13T13:20:45.592Z,0.70
2023-04-13T13:23:12.925Z,0.47
2023-04-13T13:25:56.949Z,0.60
2023-04-13T13:28:31.179Z,0.50
2023-04-13T13:30:57.937Z,0.50
2023-04-13T13:33:24.828Z,0.60
2023-04-13T13:35:52.140Z,0.50
2023-04-13T13:38:18.946Z,0.40
2023-04-13T13:40:47.048Z,0.40
2023-04-13T13:43:14.141Z,0.60
2023-04-13T13:45:41.420Z,0.40
2023-04-13T13:48:08.573Z,0.43
2023-04-13T13:50:35.451Z,0.40
2023-04-13T13:53:04.183Z,0.50
2023-04-13T13:55:32.223Z,0.88
2023-04-13T13:57:59.279Z,0.60
2023-04-13T14:00:27.079Z,0.50
2023-04-13T14:02:54.076Z,0.50
2023-04-13T14:05:22.553Z,1.60
2023-04-13T14:07:49.446Z,0.50
2023-04-13T14:10:16.632Z,0.40
2023-04-13T14:12:49.626Z,0.50
2023-04-13T14:15:17.155Z,0.70
2023-04-13T14:17:45.544Z,0.43
2023-04-13T14:20:17.158Z,0.60
2023-04-13T14:22:43.949Z,0.50
2023-04-13T14:25:11.145Z,0.50
2023-04-13T14:27:38.471Z,0.50
2023-04-13T14:30:06.054Z,0.70
2023-04-13T14:32:33.014Z,0.63
2023-04-13T14:35:00.594Z,0.68
2023-04-13T14:37:28.136Z,0.93
2023-04-13T14:39:55.151Z,0.70
2023-04-13T14:42:24.124Z,0.77
2023-04-13T14:44:54.115Z,0.38
2023-04-13T14:47:21.001Z,0.50
2023-04-13T14:49:47.990Z,0.60
2023-04-13T14:52:15.107Z,0.40
2023-04-13T14:54:42.412Z,0.63
2023-04-13T14:57:10.679Z,0.70
2023-04-13T14:59:38.141Z,1.15
2023-04-13T15:02:06.333Z,0.82
2023-04-13T15:04:33.285Z,0.55
2023-04-13T15:07:00.217Z,0.70
2023-04-13T15:09:27.338Z,0.70
2023-04-13T15:11:54.167Z,0.68
2023-04-13T15:14:21.141Z,0.90
2023-04-13T15:16:48.001Z,0.73
2023-04-13T15:19:14.802Z,0.82
2023-04-13T15:21:41.710Z,0.50
2023-04-13T15:24:09.969Z,0.75
2023-04-13T15:26:41.701Z,1.20
2023-04-13T15:29:10.880Z,0.90
2023-04-13T15:31:38.947Z,0.65
2023-04-13T15:34:08.433Z,0.90
2023-04-13T15:36:36.318Z,1.02
2023-04-13T15:39:04.529Z,1.05
2023-04-13T15:41:31.712Z,0.95
2023-04-13T15:44:00.181Z,0.98
2023-04-13T15:46:27.578Z,0.88
2023-04-13T15:48:55.291Z,0.90
2023-04-13T15:51:23.180Z,0.80
2023-04-13T15:53:49.970Z,1.08
2023-04-13T15:56:17.331Z,1.05
2023-04-13T15:58:44.404Z,1.20
2023-04-13T16:01:12.037Z,1.00
2023-04-13T16:03:40.320Z,1.02
2023-04-13T16:06:07.850Z,1.10
2023-04-13T16:08:34.786Z,0.95
2023-04-13T16:11:01.717Z,1.20
2023-04-13T16:13:45.048Z,1.10
2023-04-13T16:16:15.406Z,1.50
2023-04-13T16:18:42.235Z,1.40
2023-04-13T16:21:10.699Z,1.10
2023-04-13T16:23:38.363Z,1.35
2023-04-13T16:26:06.277Z,1.05
2023-04-13T16:28:34.444Z,1.20
2023-04-13T16:31:01.419Z,1.05
2023-04-13T16:33:29.664Z,0.95
2023-04-13T16:35:57.766Z,1.08
2023-04-13T16:38:24.540Z,0.95
2023-04-13T16:40:51.365Z,1.00
2023-04-13T16:43:18.157Z,1.25
2023-04-13T16:45:45.083Z,1.30
2023-04-13T16:48:11.988Z,1.00
2023-04-13T16:50:38.811Z,1.15
2023-04-13T16:53:05.609Z,1.15
2023-04-13T16:55:32.420Z,1.00
2023-04-13T16:57:59.155Z,0.90
2023-04-13T17:00:26.528Z,0.73
2023-04-13T17:02:53.428Z,0.93
2023-04-13T17:05:20.540Z,0.80
2023-04-13T17:07:48.055Z,1.10
2023-04-13T17:10:15.032Z,0.98
2023-04-13T17:12:41.900Z,0.82
2023-04-13T17:15:09.931Z,0.95
2023-04-13T17:17:37.892Z,1.33
2023-04-13T17:20:06.399Z,1.30
2023-04-13T17:22:33.290Z,1.15
2023-04-13T17:25:00.918Z,0.85
2023-04-13T17:27:27.739Z,0.95
2023-04-13T17:29:54.809Z,0.80
2023-04-13T17:32:22.270Z,1.30
2023-04-13T17:34:50.171Z,1.00
2023-04-13T17:37:17.746Z,1.05
2023-04-13T17:39:50.451Z,0.68
2023-04-13T17:42:17.967Z,1.63
2023-04-13T17:44:44.887Z,1.10
2023-04-13T17:47:11.745Z,1.35
2023-04-13T17:49:38.643Z,1.17
2023-04-13T17:52:05.774Z,1.30
2023-04-13T17:54:33.177Z,1.50
2023-04-13T17:57:01.027Z,1.23
2023-04-13T17:59:28.090Z,1.52
2023-04-13T18:01:55.973Z,1.27
2023-04-13T18:04:22.908Z,1.55
2023-04-13T18:06:49.816Z,1.30
2023-04-13T18:09:16.656Z,1.40
2023-04-13T18:11:43.397Z,1.27
2023-04-13T18:14:12.989Z,1.80
2023-04-13T18:16:39.872Z,1.40
2023-04-13T18:19:06.737Z,1.60
2023-04-13T18:21:33.590Z,1.58
2023-04-13T18:24:01.709Z,1.40
2023-04-13T18:26:29.071Z,1.10
2023-04-13T18:28:55.935Z,1.20
2023-04-13T18:31:23.229Z,1.30
2023-04-13T18:33:50.005Z,1.30
2023-04-13T18:36:17.949Z,1.67
2023-04-13T18:38:45.309Z,1.35
2023-04-13T18:41:12.677Z,1.85
2023-04-13T18:43:39.662Z,1.38
2023-04-13T18:46:07.611Z,2.17
2023-04-13T18:48:35.085Z,1.30
2023-04-13T18:51:03.244Z,2.03
2023-04-13T18:53:30.585Z,2.35
2023-04-13T18:55:58.580Z,2.25
2023-04-13T18:58:26.199Z,2.60
2023-04-13T19:00:53.019Z,3.15
2023-04-13T19:03:20.027Z,3.05
2023-04-13T19:05:47.176Z,3.20
2023-04-13T19:08:15.186Z,2.75
2023-04-13T19:10:43.239Z,3.28
2023-04-13T19:13:10.190Z,3.40
2023-04-13T19:15:36.996Z,3.78
2023-04-13T19:18:04.391Z,3.83
2023-04-13T19:20:31.477Z,3.33
2023-04-13T19:22:58.351Z,3.95
2023-04-13T19:25:25.323Z,3.20
2023-04-13T19:27:52.128Z,4.03
2023-04-13T19:30:19.502Z,3.60
2023-04-13T19:32:48.558Z,4.90
2023-04-13T19:35:15.934Z,6.22
2023-04-13T19:37:42.745Z,4.68
2023-04-13T19:40:13.132Z,5.00
2023-04-13T19:42:44.338Z,4.78
2023-04-13T19:45:15.008Z,4.35
2023-04-13T19:47:42.340Z,2.60
2023-04-13T19:50:12.302Z,2.33
2023-04-13T19:52:41.294Z,1.90
2023-04-13T19:55:10.464Z,2.22
2023-04-13T19:57:41.756Z,1.52
2023-04-13T20:00:16.943Z,2.25
2023-04-13T20:02:46.910Z,2.67
2023-04-13T20:05:14.843Z,1.92
2023-04-13T20:07:41.953Z,2.10
2023-04-13T20:10:12.052Z,2.30
2023-04-13T20:12:39.015Z,1.67
2023-04-13T20:15:06.970Z,2.05
2023-04-13T20:17:33.869Z,2.03
2023-04-13T20:20:00.756Z,1.67
2023-04-13T20:22:28.019Z,2.20
2023-04-13T20:24:55.186Z,2.05
2023-04-13T20:27:22.759Z,2.53
2023-04-13T20:29:51.125Z,1.92
2023-04-13T20:32:17.905Z,1.90
2023-04-13T20:34:45.197Z,2.15
2023-04-13T20:37:14.194Z,1.63
2023-04-13T20:39:50.497Z,1.77
2023-04-13T20:42:19.351Z,1.88
2023-04-13T20:44:46.970Z,2.22
2023-04-13T20:47:14.187Z,2.70
2023-04-13T20:49:51.702Z,3.10
2023-04-13T20:52:19.673Z,2.72
2023-04-13T20:54:46.422Z,2.28
2023-04-13T20:57:13.319Z,2.50
2023-04-13T20:59:40.696Z,2.50
2023-04-13T21:02:09.000Z,2.58
2023-04-13T21:04:36.401Z,2.33
2023-04-13T21:07:03.827Z,2.60
2023-04-13T21:09:30.971Z,2.63
2023-04-13T21:11:57.939Z,2.85
2023-04-13T21:14:25.419Z,2.55
2023-04-13T21:16:52.724Z,2.53
2023-04-13T21:19:19.659Z,2.20
2023-04-13T21:21:46.453Z,2.30
2023-04-13T21:24:13.510Z,2.30
2023-04-13T21:26:40.400Z,2.10
2023-04-13T21:29:07.557Z,2.33
2023-04-13T21:31:34.539Z,2.88
2023-04-13T21:34:03.453Z,2.58
2023-04-13T21:39:00.723Z,3.25
2023-04-13T21:41:27.693Z,2.75
2023-04-13T21:43:54.468Z,2.70
2023-04-13T21:46:21.351Z,2.67
2023-04-13T21:48:48.170Z,2.42
2023-04-13T21:51:14.945Z,2.75
2023-04-13T21:53:41.808Z,2.67
2023-04-13T21:56:08.683Z,3.05
2023-04-13T21:58:41.641Z,2.50
2023-04-13T22:01:09.376Z,2.50
2023-04-13T22:03:38.691Z,3.00
2023-04-13T22:06:08.960Z,2.53
2023-04-13T22:08:36.413Z,3.22
2023-04-13T22:11:03.608Z,2.40
2023-04-13T22:13:31.007Z,2.85
2023-04-13T22:15:58.050Z,2.60
2023-04-13T22:18:26.346Z,2.65
2023-04-13T22:20:53.217Z,2.47
2023-04-13T22:23:20.219Z,2.75
2023-04-13T22:25:58.895Z,3.08
2023-04-13T22:28:26.204Z,2.80
2023-04-13T22:30:53.235Z,2.40
2023-04-13T22:33:20.797Z,3.30
2023-04-13T22:35:50.694Z,2.92
2023-04-13T22:38:18.727Z,3.45
2023-04-13T22:40:45.824Z,3.55
2023-04-13T22:43:12.638Z,3.08
2023-04-13T22:45:39.469Z,2.83
2023-04-13T22:48:09.112Z,3.35
2023-04-13T22:50:39.931Z,2.83
2023-04-13T22:53:06.726Z,2.55
2023-04-13T22:55:33.514Z,2.80
2023-04-13T22:58:00.305Z,2.80
2023-04-13T23:00:27.075Z,2.83
2023-04-13T23:02:55.798Z,2.42
2023-04-13T23:05:23.188Z,3.15
2023-04-13T23:07:50.589Z,2.90
2023-04-13T23:10:17.741Z,2.70
2023-04-13T23:12:45.377Z,2.90
2023-04-13T23:15:13.361Z,3.00
2023-04-13T23:17:40.734Z,2.60
2023-04-13T23:20:08.224Z,3.17
2023-04-13T23:22:35.209Z,3.30
2023-04-13T23:25:01.972Z,3.20
2023-04-13T23:27:28.794Z,3.25
2023-04-13T23:29:55.629Z,3.08
2023-04-13T23:32:22.421Z,3.63
2023-04-13T23:34:50.799Z,2.83
2023-04-13T23:37:17.578Z,2.97
2023-04-13T23:39:44.340Z,3.40
2023-04-13T23:42:11.849Z,2.78
2023-04-13T23:44:38.674Z,2.33
2023-04-13T23:47:06.172Z,2.70
2023-04-13T23:49:32.924Z,2.50
2023-04-13T23:51:59.691Z,2.67
2023-04-13T23:54:26.538Z,3.00
2023-04-13T23:56:53.304Z,3.35
2023-04-13T23:59:20.534Z,2.67
